Time;durP1;ratioP1;P1;durP2;ratioP2;P2;SDS_P1;SDS_P2;PMS_P1;PMS_P2;Temp;Humidity;BMP_temperature;BMP_pressure;BME280_temperature;BME280_humidity;BME280_pressure;Samples;Min_cycle;Max_cycle;Signal;HPM_P1;HPM_P2
2023/04/15 00:00:50;;;;;;;7.57;3.35;;;;;;;5.58;100.00;101053.81;4931813;28;20065;-73
2023/04/15 00:03:16;;;;;;;4.97;3.28;;;;;;;5.57;100.00;101051.25;4964212;28;22029;-73
2023/04/15 00:05:42;;;;;;;9.10;3.63;;;;;;;5.55;100.00;101051.25;4963065;28;20046;-73
2023/04/15 00:08:07;;;;;;;8.27;3.88;;;;;;;5.55;100.00;101048.63;4947664;28;20141;-73
2023/04/15 00:10:33;;;;;;;8.85;3.45;;;;;;;5.53;100.00;101047.81;4948520;28;20034;-73
2023/04/15 00:13:09;;;;;;;5.82;3.50;;;;;;;5.52;100.00;101047.84;4964561;28;20575;-74
2023/04/15 00:15:34;;;;;;;6.25;3.70;;;;;;;5.50;100.00;101045.25;4964682;28;20046;-73
2023/04/15 00:18:01;;;;;;;8.52;3.67;;;;;;;5.48;100.00;101049.66;4950375;28;20658;-73
2023/04/15 00:20:26;;;;;;;7.28;3.60;;;;;;;5.48;100.00;101041.78;4964754;28;21113;-73
2023/04/15 00:22:52;;;;;;;11.10;4.05;;;;;;;5.46;100.00;101051.47;4928331;28;20053;-72
2023/04/15 00:25:17;;;;;;;8.60;4.20;;;;;;;5.43;100.00;101051.50;4948399;28;20046;-72
2023/04/15 00:27:43;;;;;;;7.50;3.70;;;;;;;5.41;100.00;101053.31;4963843;28;20038;-73
2023/04/15 00:30:16;;;;;;;7.30;3.90;;;;;;;5.38;100.00;101045.50;4964275;28;20070;-72
2023/04/15 00:32:41;;;;;;;8.13;3.95;;;;;;;5.36;100.00;101049.91;4964290;28;20119;-73
2023/04/15 00:35:08;;;;;;;5.55;3.40;;;;;;;5.34;100.00;101057.81;4964682;28;20042;-73
2023/04/15 00:37:34;;;;;;;8.18;3.75;;;;;;;5.30;100.00;101051.75;4964468;28;20057;-72
2023/04/15 00:40:00;;;;;;;7.45;3.72;;;;;;;5.27;100.00;101057.09;4944312;28;20046;-73
2023/04/15 00:42:26;;;;;;;6.43;3.88;;;;;;;5.25;100.00;101058.88;4964177;28;20430;-73
2023/04/15 00:44:52;;;;;;;6.25;3.72;;;;;;;5.24;100.00;101056.28;4964364;28;20693;-73
2023/04/15 00:47:26;;;;;;;7.13;3.45;;;;;;;5.21;100.00;101062.47;4965192;28;20185;-73
2023/04/15 00:49:51;;;;;;;7.35;3.63;;;;;;;5.19;100.00;101064.25;4946280;28;20042;-73
2023/04/15 00:52:17;;;;;;;11.05;3.58;;;;;;;5.16;100.00;101065.19;4947984;28;20932;-72
2023/04/15 00:54:42;;;;;;;5.10;3.50;;;;;;;5.14;100.00;101060.84;4948090;28;20105;-73
2023/04/15 00:57:08;;;;;;;7.18;4.03;;;;;;;5.13;100.00;101064.38;4956986;28;20081;-73
2023/04/15 00:59:36;;;;;;;6.93;3.40;;;;;;;5.09;100.00;101062.69;4967766;28;20639;-73
2023/04/15 01:02:01;;;;;;;9.75;3.92;;;;;;;5.07;100.00;101064.47;4951155;28;20041;-73
2023/04/15 01:04:33;;;;;;;7.38;4.05;;;;;;;5.06;100.00;101062.75;4967020;28;20054;-73
2023/04/15 01:06:58;;;;;;;9.82;4.25;;;;;;;5.03;100.00;101064.53;4965848;28;20042;-72
2023/04/15 01:09:24;;;;;;;7.03;3.80;;;;;;;5.01;100.00;101068.94;4967578;28;20108;-74
2023/04/15 01:11:50;;;;;;;8.07;4.15;;;;;;;4.99;100.00;101064.63;4967047;28;20723;-72
2023/04/15 01:14:16;;;;;;;8.93;4.10;;;;;;;4.97;100.00;101071.66;4965716;28;20096;-72
2023/04/15 01:16:41;;;;;;;7.82;3.95;;;;;;;4.95;100.00;101074.31;4967328;28;20856;-73
2023/04/15 01:19:08;;;;;;;6.50;3.92;;;;;;;4.93;100.00;101068.22;4966479;28;20053;-72
2023/04/15 01:21:41;;;;;;;8.48;4.10;;;;;;;4.91;100.00;101071.78;4981835;28;20125;-73
2023/04/15 01:24:09;;;;;;;6.72;4.40;;;;;;;4.89;100.00;101067.41;4967445;28;20030;-74
2023/04/15 01:26:38;;;;;;;9.75;4.55;;;;;;;4.88;100.00;101072.69;4967902;28;20132;-73
2023/04/15 01:29:03;;;;;;;8.45;4.05;;;;;;;4.88;100.00;101072.69;4981972;28;20125;-73
2023/04/15 01:31:29;;;;;;;7.88;4.43;;;;;;;4.89;100.00;101071.78;4964928;28;21720;-72
2023/04/15 01:33:54;;;;;;;7.95;4.47;;;;;;;4.88;100.00;101065.69;4966902;28;20057;-73
2023/04/15 01:36:20;;;;;;;8.68;4.65;;;;;;;4.86;100.00;101066.63;4967124;28;20042;-72
2023/04/15 01:38:46;;;;;;;8.45;5.07;;;;;;;4.85;100.00;101067.50;4981700;28;20042;-73
2023/04/15 01:41:26;;;;;;;7.55;4.22;;;;;;;4.84;100.00;101068.38;4951276;28;20034;-73
2023/04/15 01:43:52;;;;;;;11.40;4.40;;;;;;;4.82;100.00;101067.56;4966253;28;20042;-73
2023/04/15 01:46:17;;;;;;;9.85;4.53;;;;;;;4.81;100.00;101073.69;4966885;28;20573;-72
2023/04/15 01:48:43;;;;;;;10.93;5.00;;;;;;;4.80;100.00;101071.97;4965110;28;20048;-73
2023/04/15 01:51:08;;;;;;;9.77;4.72;;;;;;;4.78;100.00;101084.25;4966588;28;20505;-76
2023/04/15 01:53:34;;;;;;;9.60;5.28;;;;;;;4.75;100.00;101072.91;4966921;28;20571;-73
2023/04/15 01:56:04;;;;;;;11.27;5.55;;;;;;;4.75;100.00;101069.44;4965063;28;20476;-73
2023/04/15 01:58:30;;;;;;;9.57;5.15;;;;;;;4.74;100.00;101078.19;4963644;28;21211;-73
2023/04/15 02:00:55;;;;;;;10.00;5.50;;;;;;;4.72;100.00;101080.84;4981236;28;20050;-73
2023/04/15 02:03:21;;;;;;;11.20;5.32;;;;;;;4.71;100.00;101078.22;4964624;28;20525;-72
2023/04/15 02:05:46;;;;;;;10.52;5.70;;;;;;;4.72;100.00;101079.97;4947039;28;20127;-73
2023/04/15 02:08:12;;;;;;;12.93;5.45;;;;;;;4.70;100.00;101079.13;4949853;28;20038;-72
2023/04/15 02:10:38;;;;;;;10.68;5.82;;;;;;;4.68;100.00;101079.16;4966584;28;20458;-72
2023/04/15 02:13:03;;;;;;;12.07;5.57;;;;;;;4.68;100.00;101084.41;4966056;28;20042;-73
2023/04/15 02:15:29;;;;;;;12.35;5.30;;;;;;;4.68;100.00;101084.41;4965355;28;20089;-72
2023/04/15 02:17:55;;;;;;;10.38;5.78;;;;;;;4.67;100.00;101087.91;4981710;28;20057;-72
2023/04/15 02:20:21;;;;;;;10.20;6.00;;;;;;;4.65;100.00;101084.47;4949791;28;20549;-73
2023/04/15 02:22:47;;;;;;;10.45;5.53;;;;;;;4.66;100.00;101091.44;4965003;28;20125;-73
2023/04/15 02:25:13;;;;;;;10.18;5.38;;;;;;;4.65;100.00;101092.31;4965992;28;20092;-73
2023/04/15 02:27:39;;;;;;;10.73;5.43;;;;;;;4.65;100.00;101099.31;4980900;28;20038;-72
2023/04/15 02:30:07;;;;;;;9.68;5.60;;;;;;;4.63;100.00;101101.97;4949452;28;20100;-73
2023/04/15 02:32:32;;;;;;;12.18;5.82;;;;;;;4.63;100.00;101099.34;4947967;28;20193;-72
2023/04/15 02:35:05;;;;;;;11.05;5.80;;;;;;;4.61;100.00;101103.75;4935814;28;20505;-72
2023/04/15 02:37:31;;;;;;;9.52;5.93;;;;;;;4.59;100.00;101110.78;4948782;28;20485;-72
2023/04/15 02:39:56;;;;;;;10.63;5.82;;;;;;;4.57;100.00;101107.31;4948902;28;20034;-72
2023/04/15 02:42:22;;;;;;;13.25;6.13;;;;;;;4.56;100.00;101116.94;4966355;28;20042;-73
2023/04/15 02:44:47;;;;;;;10.13;6.00;;;;;;;4.54;100.00;101113.47;4980629;28;20533;-72
2023/04/15 02:47:14;;;;;;;13.95;6.25;;;;;;;4.52;100.00;101114.41;4978682;28;20907;-73
2023/04/15 02:49:40;;;;;;;12.48;6.18;;;;;;;4.50;100.00;101117.03;4964615;28;20068;-72
2023/04/15 02:52:05;;;;;;;11.88;6.07;;;;;;;4.45;100.00;101119.72;4950567;28;20988;-73
2023/04/15 02:54:32;;;;;;;10.25;6.03;;;;;;;4.44;100.00;101120.63;4965817;28;20129;-72
2023/04/15 02:56:58;;;;;;;11.68;6.22;;;;;;;4.44;100.00;101127.63;4964395;28;20050;-72
2023/04/15 02:59:24;;;;;;;12.55;6.80;;;;;;;4.43;100.00;101133.75;4979810;28;20045;-73
2023/04/15 03:01:49;;;;;;;13.20;6.70;;;;;;;4.41;100.00;101132.91;4963884;28;20468;-73
2023/04/15 03:04:15;;;;;;;11.98;6.90;;;;;;;4.40;100.00;101137.28;4964985;28;20034;-73
2023/04/15 03:06:41;;;;;;;11.63;6.45;;;;;;;4.40;100.00;101136.44;4963182;28;20054;-73
2023/04/15 03:09:06;;;;;;;12.25;6.43;;;;;;;4.40;100.00;101131.19;4964904;28;20049;-73
2023/04/15 03:11:32;;;;;;;12.55;6.57;;;;;;;4.37;100.00;101145.22;4946203;28;20662;-72
2023/04/15 03:13:57;;;;;;;16.80;6.47;;;;;;;4.37;100.00;101139.97;4963456;28;20093;-73
2023/04/15 03:16:23;;;;;;;12.38;6.40;;;;;;;4.35;100.00;101147.84;4965630;28;20059;-74
2023/04/15 03:18:49;;;;;;;12.30;6.13;;;;;;;4.35;100.00;101150.47;4964961;28;20248;-74
2023/04/15 03:21:15;;;;;;;13.10;7.15;;;;;;;4.33;100.00;101149.63;4964976;28;20038;-73
2023/04/15 03:23:40;;;;;;;13.63;6.88;;;;;;;4.32;100.00;101160.97;4946374;28;20046;-73
2023/04/15 03:26:06;;;;;;;12.50;6.72;;;;;;;4.30;100.00;101157.53;4965000;28;20553;-73
2023/04/15 03:28:31;;;;;;;10.68;6.18;;;;;;;4.32;100.00;101162.75;4965087;28;20105;-73
2023/04/15 03:30:57;;;;;;;10.13;6.03;;;;;;;4.30;100.00;101159.28;4963276;28;20108;-73
2023/04/15 03:33:23;;;;;;;15.13;6.60;;;;;;;4.29;100.00;101165.41;4979760;28;20058;-73
2023/04/15 03:35:49;;;;;;;11.73;6.18;;;;;;;4.27;100.00;101168.06;4964577;28;20164;-73
2023/04/15 03:38:15;;;;;;;14.52;7.03;;;;;;;4.26;100.00;101165.47;4964151;28;20035;-73
2023/04/15 03:40:41;;;;;;;14.75;7.28;;;;;;;4.26;100.00;101173.31;4947056;28;20501;-73
2023/04/15 03:43:06;;;;;;;12.75;6.78;;;;;;;4.24;100.00;101168.09;4964657;28;20046;-73
2023/04/15 03:45:32;;;;;;;12.48;6.60;;;;;;;4.24;100.00;101172.47;4964721;28;20030;-72
2023/04/15 03:47:57;;;;;;;15.40;6.97;;;;;;;4.27;100.00;101177.66;4944197;28;20109;-73
2023/04/15 03:50:23;;;;;;;13.50;6.95;;;;;;;4.29;100.00;101170.63;4965163;28;20093;-72
2023/04/15 03:52:48;;;;;;;14.65;7.40;;;;;;;4.30;100.00;101169.78;4965193;28;20156;-73
2023/04/15 03:55:16;;;;;;;12.80;6.82;;;;;;;4.31;100.00;101180.22;4964461;28;20088;-73
2023/04/15 03:57:42;;;;;;;15.10;7.40;;;;;;;4.33;100.00;101188.06;4963757;28;20270;-72
2023/04/15 04:00:09;;;;;;;14.70;7.57;;;;;;;4.30;100.00;101183.72;4963903;28;20490;-73
2023/04/15 04:02:35;;;;;;;12.52;6.85;;;;;;;4.29;100.00;101192.50;4979631;28;20038;-73
2023/04/15 04:05:00;;;;;;;14.43;6.55;;;;;;;4.29;100.00;101194.22;4962893;28;20073;-73
2023/04/15 04:07:26;;;;;;;14.55;7.47;;;;;;;4.28;100.00;101198.63;4948044;28;20039;-72
2023/04/15 04:09:51;;;;;;;13.77;7.35;;;;;;;4.27;100.00;101194.28;4963182;28;20032;-73
2023/04/15 04:12:17;;;;;;;13.75;7.57;;;;;;;4.27;100.00;101198.63;4979231;28;20049;-73
2023/04/15 04:14:43;;;;;;;15.95;7.60;;;;;;;4.28;100.00;101205.63;4949463;28;20657;-73
2023/04/15 04:17:08;;;;;;;12.45;8.02;;;;;;;4.28;100.00;101209.13;4964459;28;21422;-73
2023/04/15 04:19:34;;;;;;;15.27;7.93;;;;;;;4.27;100.00;101204.75;4965437;28;20494;-74
2023/04/15 04:22:06;;;;;;;16.33;7.95;;;;;;;4.29;100.00;101204.72;4949009;28;20042;-74
2023/04/15 04:24:31;;;;;;;17.73;8.18;;;;;;;4.31;100.00;101209.06;4968644;28;20046;-73
2023/04/15 04:26:57;;;;;;;17.23;8.52;;;;;;;4.32;100.00;101212.56;4967899;28;20413;-73
2023/04/15 04:29:22;;;;;;;13.55;7.75;;;;;;;4.31;100.00;101208.22;4968270;28;20172;-72
2023/04/15 04:31:48;;;;;;;14.35;7.53;;;;;;;4.29;100.00;101213.47;4964570;28;20038;-73
2023/04/15 04:34:14;;;;;;;20.25;9.05;;;;;;;4.27;100.00;101212.63;4983025;28;20615;-72
2023/04/15 04:36:40;;;;;;;18.08;8.93;;;;;;;4.27;100.00;101212.63;4951674;28;20153;-72
2023/04/15 04:39:11;;;;;;;18.85;8.57;;;;;;;4.30;100.00;101224.84;4967968;28;21977;-72
2023/04/15 04:41:37;;;;;;;18.25;9.25;;;;;;;4.31;100.00;101221.31;4967840;28;20050;-72
2023/04/15 04:44:03;;;;;;;16.42;8.05;;;;;;;4.30;100.00;101224.84;4954655;28;22039;-72
2023/04/15 04:46:28;;;;;;;18.02;8.38;;;;;;;4.30;100.00;101227.44;4951400;28;20129;-73
2023/04/15 04:48:54;;;;;;;18.48;9.50;;;;;;;4.30;100.00;101232.69;4950484;28;20046;-72
2023/04/15 04:51:20;;;;;;;18.50;8.65;;;;;;;4.30;100.00;101235.31;4967544;28;20034;-74
2023/04/15 04:53:45;;;;;;;19.40;9.13;;;;;;;4.30;100.00;101240.56;4982993;28;20039;-72
2023/04/15 04:56:11;;;;;;;17.70;8.55;;;;;;;4.31;100.00;101239.66;4968007;28;20038;-72
2023/04/15 04:58:37;;;;;;;16.92;9.20;;;;;;;4.31;100.00;101239.66;4967078;28;20050;-73
2023/04/15 05:01:02;;;;;;;15.20;7.95;;;;;;;4.32;100.00;101244.88;4967492;28;20034;-72
2023/04/15 05:03:28;;;;;;;16.98;8.48;;;;;;;4.33;100.00;101248.38;4965474;28;20457;-74
2023/04/15 05:05:53;;;;;;;15.50;8.70;;;;;;;4.37;100.00;101249.19;4966263;28;20066;-75
2023/04/15 05:08:19;;;;;;;17.60;8.82;;;;;;;4.36;100.00;101253.56;4951084;28;20162;-73
2023/04/15 05:10:45;;;;;;;21.67;8.68;;;;;;;4.30;100.00;101257.13;4967911;28;20240;-74
2023/04/15 05:13:11;;;;;;;18.60;9.02;;;;;;;4.26;100.00;101250.22;4982690;28;20529;-73
2023/04/15 05:15:38;;;;;;;19.40;8.70;;;;;;;4.23;100.00;101265.13;4949758;28;20690;-73
2023/04/15 05:18:04;;;;;;;13.93;7.57;;;;;;;4.19;100.00;101265.13;4967578;28;20045;-73
2023/04/15 05:20:29;;;;;;;13.80;7.93;;;;;;;4.18;100.00;101266.03;4967761;28;21075;-74
2023/04/15 05:22:55;;;;;;;14.13;8.02;;;;;;;4.18;100.00;101271.28;4949662;28;20520;-73
2023/04/15 05:25:21;;;;;;;14.35;8.18;;;;;;;4.19;100.00;101275.63;4967497;28;20045;-73
2023/04/15 05:27:46;;;;;;;15.00;8.05;;;;;;;4.20;100.00;101274.72;4967099;28;20110;-73
2023/04/15 05:30:12;;;;;;;16.98;7.93;;;;;;;4.23;100.00;101273.81;4966705;28;20173;-73
2023/04/15 05:32:37;;;;;;;15.70;8.18;;;;;;;4.23;100.00;101276.44;4981217;28;20065;-73
2023/04/15 05:35:03;;;;;;;16.80;9.40;;;;;;;4.22;100.00;101272.09;4966543;28;22185;-74
2023/04/15 05:37:29;;;;;;;15.52;7.63;;;;;;;4.24;100.00;101280.81;4951126;28;20995;-74
2023/04/15 05:39:55;;;;;;;16.92;8.95;;;;;;;4.28;100.00;101284.25;4935635;28;20038;-75
2023/04/15 05:42:21;;;;;;;16.00;8.30;;;;;;;4.31;100.00;101273.75;4966309;28;20030;-73
2023/04/15 05:44:46;;;;;;;15.32;7.90;;;;;;;4.37;100.00;101278.91;4964748;28;20541;-73
2023/04/15 05:47:12;;;;;;;17.13;8.20;;;;;;;4.42;100.00;101284.94;4965362;28;20129;-73
2023/04/15 05:49:37;;;;;;;16.02;8.18;;;;;;;4.51;100.00;101285.75;4962800;28;20045;-76
2023/04/15 05:52:03;;;;;;;15.73;8.15;;;;;;;4.60;100.00;101290.84;4967182;28;20038;-73
2023/04/15 05:54:28;;;;;;;16.13;8.27;;;;;;;4.67;100.00;101289.00;4966832;28;20091;-73
2023/04/15 05:56:56;;;;;;;15.60;8.23;;;;;;;4.77;100.00;101295.88;4945378;28;20041;-72
2023/04/15 05:59:21;;;;;;;16.42;8.02;;;;;;;4.86;100.00;101302.75;4947130;28;20042;-73
2023/04/15 06:01:48;;;;;;;15.63;8.00;;;;;;;4.92;100.00;101297.41;4946995;28;20050;-74
2023/04/15 06:04:14;;;;;;;17.15;8.00;;;;;;;5.00;100.00;101300.78;4945236;28;20132;-72
2023/04/15 06:06:39;;;;;;;13.52;7.53;;;;;;;5.06;100.00;101301.59;4976600;28;20042;-74
2023/04/15 06:09:05;;;;;;;13.75;7.78;;;;;;;5.11;100.00;101310.25;4948843;28;20400;-73
2023/04/15 06:11:30;;;;;;;15.75;7.80;;;;;;;5.20;100.00;101306.63;4947163;28;20042;-74
2023/04/15 06:13:56;;;;;;;14.77;7.57;;;;;;;5.27;100.00;101314.38;4975203;28;20403;-74
2023/04/15 06:16:22;;;;;;;13.90;7.65;;;;;;;5.36;100.00;101323.00;4946943;28;20076;-73
2023/04/15 06:18:47;;;;;;;13.20;7.10;;;;;;;5.46;100.00;101329.84;4961648;28;22036;-73
2023/04/15 06:21:13;;;;;;;13.07;7.07;;;;;;;5.57;100.00;101327.03;4947012;28;20105;-73
2023/04/15 06:23:40;;;;;;;13.52;7.00;;;;;;;5.70;100.00;101335.56;4943499;28;20043;-74
2023/04/15 06:26:05;;;;;;;14.52;7.65;;;;;;;5.81;100.00;101331.00;4947084;28;20129;-74
2023/04/15 06:28:31;;;;;;;15.10;7.75;;;;;;;6.01;100.00;101337.66;4959607;28;20097;-75
2023/04/15 06:31:04;;;;;;;15.57;8.00;;;;;;;6.23;100.00;101337.28;4946499;28;20679;-73
2023/04/15 06:33:30;;;;;;;13.75;7.32;;;;;;;6.47;100.00;101345.56;4946511;28;20046;-73
2023/04/15 06:35:56;;;;;;;10.88;6.50;;;;;;;6.66;100.00;101344.31;4977455;28;20406;-73
2023/04/15 06:38:21;;;;;;;12.90;6.65;;;;;;;6.82;100.00;101345.75;4946679;28;20062;-73
2023/04/15 06:40:47;;;;;;;13.20;7.20;;;;;;;6.96;100.00;101341.03;4975928;28;20050;-74
2023/04/15 06:43:12;;;;;;;13.07;6.65;;;;;;;7.11;100.00;101345.09;4961387;28;22061;-73
2023/04/15 06:45:38;;;;;;;12.75;6.82;;;;;;;7.27;100.00;101337.72;4959286;28;20035;-73
2023/04/15 06:48:04;;;;;;;11.32;6.90;;;;;;;7.43;100.00;101354.03;4975323;28;20026;-74
2023/04/15 06:50:30;;;;;;;11.55;6.80;;;;;;;7.51;100.00;101351.19;4944705;28;20031;-73
2023/04/15 06:52:56;;;;;;;11.32;7.00;;;;;;;7.55;100.00;101365.16;4946296;28;20149;-73
2023/04/15 06:55:21;;;;;;;12.30;6.65;;;;;;;7.57;100.00;101366.00;4946334;28;20045;-73
2023/04/15 06:57:47;;;;;;;12.73;6.22;;;;;;;7.58;100.00;101373.00;4958130;28;20109;-73
2023/04/15 07:00:13;;;;;;;10.35;6.05;;;;;;;7.58;100.00;101371.22;4946756;28;20076;-73
2023/04/15 07:02:38;;;;;;;10.65;5.72;;;;;;;7.62;100.00;101372.00;4964727;28;20042;-73
2023/04/15 07:05:05;;;;;;;10.55;5.45;;;;;;;7.66;100.00;101375.44;4979407;28;20294;-73
2023/04/15 07:07:31;;;;;;;9.48;6.05;;;;;;;7.69;100.00;101383.28;4946554;28;20057;-73
2023/04/15 07:09:56;;;;;;;9.02;5.68;;;;;;;7.75;100.00;101386.59;4964916;28;20034;-73
2023/04/15 07:12:22;;;;;;;11.25;5.88;;;;;;;7.78;100.00;101390.09;4948547;28;20578;-74
2023/04/15 07:14:48;;;;;;;10.10;5.93;;;;;;;7.82;100.00;101394.38;4963079;28;22251;-73
2023/04/15 07:17:13;;;;;;;11.20;5.75;;;;;;;7.87;100.00;101400.41;4948796;28;20144;-73
2023/04/15 07:19:39;;;;;;;11.60;5.95;;;;;;;7.95;100.00;101398.44;4947519;28;20049;-74
2023/04/15 07:22:05;;;;;;;11.75;6.00;;;;;;;8.04;100.00;101401.72;4964970;28;20157;-74
2023/04/15 07:24:31;;;;;;;10.88;5.72;;;;;;;8.10;100.00;101409.47;4963813;28;20567;-74
2023/04/15 07:26:59;;;;;;;10.65;5.90;;;;;;;8.22;100.00;101406.53;4979819;28;20181;-74
2023/04/15 07:29:25;;;;;;;11.85;5.78;;;;;;;8.34;100.00;101402.69;4964268;28;20146;-74
2023/04/15 07:31:51;;;;;;;10.07;5.90;;;;;;;8.47;100.00;101415.56;4962288;28;20771;-75
2023/04/15 07:34:18;;;;;;;11.02;5.55;;;;;;;8.59;100.00;101420.53;4965188;28;20045;-74
2023/04/15 07:36:44;;;;;;;10.70;5.78;;;;;;;8.66;100.00;101408.03;4948667;28;20045;-74
2023/04/15 07:39:10;;;;;;;8.55;5.10;;;;;;;8.71;100.00;101419.31;4964490;28;20093;-74
2023/04/15 07:41:36;;;;;;;7.30;4.28;;;;;;;8.74;100.00;101419.25;4960784;28;20038;-72
2023/04/15 07:44:02;;;;;;;9.18;5.10;;;;;;;8.78;100.00;101415.56;4964935;28;21098;-73
2023/04/15 07:46:28;;;;;;;5.95;3.83;;;;;;;8.87;100.00;101418.88;4979154;28;20048;-72
2023/04/15 07:48:53;;;;;;;5.88;4.13;;;;;;;8.91;100.00;101421.38;4944605;28;20646;-72
2023/04/15 07:51:22;;;;;;;6.18;3.30;;;;;;;8.90;100.00;101418.78;4964722;28;20050;-73
2023/04/15 07:53:49;;;;;;;4.65;3.30;;;;;;;8.89;100.00;101428.47;4949409;28;20526;-74
2023/04/15 07:56:15;;;;;;;6.18;3.50;;;;;;;8.89;100.00;101424.97;4929873;28;20505;-74
2023/04/15 07:58:41;;;;;;;5.80;3.38;;;;;;;8.89;100.00;101425.81;4960211;28;20125;-73
2023/04/15 08:01:06;;;;;;;4.55;3.05;;;;;;;8.89;100.00;101428.47;4946347;28;21978;-73
2023/04/15 08:03:32;;;;;;;5.93;3.55;;;;;;;8.84;100.00;101433.03;4964663;28;20046;-74
2023/04/15 08:05:58;;;;;;;5.57;3.50;;;;;;;8.76;100.00;101438.53;4976806;28;20639;-75
2023/04/15 08:08:24;;;;;;;5.82;3.60;;;;;;;8.77;100.00;101436.78;4965198;28;20508;-73
2023/04/15 08:10:50;;;;;;;6.25;3.30;;;;;;;8.78;100.00;101439.34;4964829;28;20123;-74
2023/04/15 08:13:15;;;;;;;6.03;2.80;;;;;;;8.77;100.00;101442.06;4979811;28;20050;-76
2023/04/15 08:15:44;;;;;;;4.72;3.17;;;;;;;8.76;100.00;101441.16;4956946;28;20046;-74
2023/04/15 08:18:10;;;;;;;4.78;2.85;;;;;;;8.78;100.00;101447.25;4948147;28;20042;-74
2023/04/15 08:20:36;;;;;;;5.22;3.10;;;;;;;8.75;100.00;101449.13;4964503;28;20122;-74
2023/04/15 08:23:03;;;;;;;5.32;3.28;;;;;;;8.77;100.00;101448.19;4963839;28;20398;-74
2023/04/15 08:25:29;;;;;;;3.58;2.53;;;;;;;8.83;100.00;101453.28;4965178;28;20045;-74
2023/04/15 08:27:56;;;;;;;2.72;2.45;;;;;;;8.91;100.00;101453.06;4965662;28;21558;-74
2023/04/15 08:30:22;;;;;;;4.00;2.33;;;;;;;8.88;100.00;101454.94;4964956;28;20042;-74
2023/04/15 08:32:49;;;;;;;4.03;2.70;;;;;;;8.92;100.00;101464.50;4965514;28;20065;-74
2023/04/15 08:35:14;;;;;;;4.90;2.25;;;;;;;8.92;100.00;101460.09;4949695;28;20045;-74
2023/04/15 08:37:40;;;;;;;4.43;2.50;;;;;;;8.92;100.00;101467.13;4965985;28;20034;-74
2023/04/15 08:40:07;;;;;;;3.72;2.25;;;;;;;8.99;100.00;101466.03;4976343;28;20062;-74
2023/04/15 08:42:36;;;;;;;4.45;2.40;;;;;;;9.06;100.00;101469.38;4964323;28;20064;-74
2023/04/15 08:45:03;;;;;;;3.90;2.67;;;;;;;9.13;100.00;101476.22;4965794;28;20180;-74
2023/04/15 08:47:32;;;;;;;4.63;2.58;;;;;;;9.21;100.00;101478.66;4966455;28;20583;-75
2023/04/15 08:49:58;;;;;;;4.18;2.67;;;;;;;9.29;100.00;101474.00;4964560;28;20069;-74
2023/04/15 08:52:25;;;;;;;3.88;2.38;;;;;;;9.31;100.00;101481.88;4965893;28;20109;-74
2023/04/15 08:54:55;;;;;;;4.57;2.60;;;;;;;9.35;100.00;101483.50;4965703;28;20049;-74
2023/04/15 08:57:23;;;;;;;5.55;2.97;;;;;;;9.28;100.00;101492.53;4946142;28;20540;-74
2023/04/15 08:59:48;;;;;;;4.80;3.00;;;;;;;9.10;100.00;101490.38;4964265;28;20046;-74
2023/04/15 09:02:14;;;;;;;4.43;2.85;;;;;;;8.95;100.00;101485.53;4965363;28;20046;-74
2023/04/15 09:04:41;;;;;;;5.07;3.22;;;;;;;8.89;100.00;101510.34;4949729;28;20205;-74
2023/04/15 09:07:06;;;;;;;5.70;3.40;;;;;;;8.86;100.00;101499.00;4962342;28;20050;-74
2023/04/15 09:09:32;;;;;;;6.13;3.03;;;;;;;8.90;100.00;101509.44;4967087;28;20042;-74
2023/04/15 09:12:00;;;;;;;4.18;2.80;;;;;;;8.93;100.00;101503.22;4969749;28;20050;-73
2023/04/15 09:14:28;;;;;;;6.63;3.10;;;;;;;8.89;100.00;101510.34;4981648;28;20717;-74
2023/04/15 09:17:01;;;;;;;4.95;2.60;;;;;;;8.90;100.00;101513.84;4969001;28;20065;-75
2023/04/15 09:19:27;;;;;;;3.83;2.50;;;;;;;8.81;100.00;101528.16;4952491;28;20041;-74
2023/04/15 09:21:57;;;;;;;4.90;2.63;;;;;;;8.78;100.00;101528.25;4984757;28;20038;-75
2023/04/15 09:24:23;;;;;;;4.38;2.53;;;;;;;8.83;100.00;101524.56;4967889;28;20124;-74
2023/04/15 09:26:54;;;;;;;3.10;2.08;;;;;;;8.84;100.00;101528.09;4969467;28;20038;-74
2023/04/15 09:29:19;;;;;;;3.05;1.90;;;;;;;8.79;100.00;101538.78;4952599;28;20034;-74
2023/04/15 09:31:45;;;;;;;3.38;2.65;;;;;;;8.76;100.00;101538.84;4950758;28;20827;-75
2023/04/15 09:34:11;;;;;;;8.52;2.40;;;;;;;8.67;100.00;101536.47;4968984;28;20046;-74
2023/04/15 09:36:46;;;;;;;4.22;2.40;;;;;;;8.63;100.00;101526.88;4967891;28;20964;-75
2023/04/15 09:39:11;;;;;;;6.53;2.75;;;;;;;8.62;100.00;101530.44;4968693;28;20085;-74
2023/04/15 09:41:37;;;;;;;4.82;2.38;;;;;;;8.62;100.00;101530.44;4966694;28;20035;-73
2023/04/15 09:44:03;;;;;;;3.53;2.30;;;;;;;8.72;100.00;101534.56;4983624;28;20109;-74
2023/04/15 09:46:44;;;;;;;3.22;2.08;;;;;;;8.81;100.00;101544.00;4983820;28;20046;-75
2023/04/15 09:49:11;;;;;;;5.00;2.28;;;;;;;8.91;100.00;101539.34;4965277;28;20109;-74
2023/04/15 09:51:37;;;;;;;4.78;2.20;;;;;;;8.93;100.00;101541.03;4968827;28;20456;-73
2023/04/15 09:54:06;;;;;;;4.25;2.22;;;;;;;8.97;100.00;101549.75;4968843;28;20050;-73
2023/04/15 09:56:36;;;;;;;3.33;2.00;;;;;;;8.95;100.00;101554.22;4950349;28;20042;-73
2023/04/15 09:59:02;;;;;;;2.75;1.77;;;;;;;8.95;100.00;101551.56;4949144;28;20050;-74
2023/04/15 10:01:28;;;;;;;2.88;2.00;;;;;;;9.09;100.00;101546.78;4968410;28;20042;-75
2023/04/15 10:03:56;;;;;;;2.75;1.80;;;;;;;9.24;100.00;101549.88;4968581;28;20053;-73
2023/04/15 10:06:23;;;;;;;2.72;1.40;;;;;;;9.24;100.00;101540.19;4967381;28;20046;-73
2023/04/15 10:08:49;;;;;;;1.73;1.30;;;;;;;9.32;100.00;101542.59;4937993;28;20027;-73
2023/04/15 10:11:16;;;;;;;2.53;1.50;;;;;;;9.41;100.00;101546.75;4983421;28;20034;-73
2023/04/15 10:13:42;;;;;;;1.40;1.30;;;;;;;9.38;100.00;101542.41;4966119;28;20078;-72
2023/04/15 10:16:11;;;;;;;2.80;1.23;;;;;;;9.32;100.00;101547.03;4967820;28;20121;-73
2023/04/15 10:18:42;;;;;;;3.45;1.65;;;;;;;9.20;100.00;101550.88;4953124;28;20104;-73
2023/04/15 10:21:08;;;;;;;1.80;1.30;;;;;;;9.18;100.00;101555.34;4969297;28;20050;-73
2023/04/15 10:23:34;;;;;;;4.05;1.50;;;;;;;9.25;100.00;101562.19;4966238;28;20088;-72
2023/04/15 10:26:01;;;;;;;1.88;1.25;;;;;;;9.28;100.00;101567.41;4964321;28;20085;-73
2023/04/15 10:28:27;;;;;;;1.33;1.17;;;;;;;9.29;100.00;101560.31;4967711;28;20049;-73
2023/04/15 10:30:53;;;;;;;2.03;1.30;;;;;;;9.25;100.00;101562.19;4967810;28;20026;-73
2023/04/15 10:33:20;;;;;;;2.38;1.20;;;;;;;9.32;100.00;101558.44;4966350;28;20173;-74
2023/04/15 10:35:46;;;;;;;1.33;1.20;;;;;;;9.42;100.00;101564.34;4949755;28;20562;-74
2023/04/15 10:38:36;;;;;;;1.92;1.00;;;;;;;9.47;100.00;101566.84;4966273;28;20133;-73
2023/04/15 10:41:33;;;;;;;1.20;1.10;;;;;;;9.38;100.00;101557.44;4933073;28;20125;-73
2023/04/15 10:43:58;;;;;;;1.63;1.00;;;;;;;9.28;100.00;101569.16;4954916;28;20050;-73
2023/04/15 10:46:37;;;;;;;1.25;1.10;;;;;;;9.30;100.00;101570.84;4967661;28;20049;-73
2023/04/15 10:49:17;;;;;;;2.63;1.20;;;;;;;9.35;100.00;101576.88;4965277;28;20066;-74
2023/04/15 10:51:47;;;;;;;1.33;1.10;;;;;;;9.38;100.00;101566.19;4919450;28;20521;-74
2023/04/15 10:54:32;;;;;;;2.50;1.17;;;;;;;9.44;100.00;101578.41;4982494;28;20520;-73
2023/04/15 10:57:01;;;;;;;1.95;0.80;;;;;;;9.41;100.00;101578.47;4967037;28;20599;-73
2023/04/15 10:59:28;;;;;;;1.40;1.10;;;;;;;9.36;100.00;101589.19;4930182;28;20129;-74
2023/04/15 11:01:58;;;;;;;1.15;0.85;;;;;;;9.24;100.00;101584.22;4967905;28;20549;-74
2023/04/15 11:04:53;;;;;;;1.42;1.17;;;;;;;9.12;100.00;101598.66;4981811;28;20054;-74
2023/04/15 11:07:40;;;;;;;1.65;1.10;;;;;;;9.06;100.00;101610.22;4932381;28;20889;-74
2023/04/15 11:10:24;;;;;;;1.25;1.15;;;;;;;9.02;100.00;101598.03;4967219;28;20054;-74
2023/04/15 11:12:51;;;;;;;2.47;1.40;;;;;;;8.95;100.00;101597.31;4967275;28;20096;-73
2023/04/15 11:15:26;;;;;;;1.38;1.25;;;;;;;8.98;100.00;101596.38;4964707;28;20041;-73
2023/04/15 11:17:52;;;;;;;1.83;1.30;;;;;;;8.96;100.00;101609.66;4966782;28;20034;-73
2023/04/15 11:20:17;;;;;;;2.67;1.60;;;;;;;8.90;100.00;101608.91;4953291;28;20073;-73